Time;durP1;ratioP1;P1;durP2;ratioP2;P2;SDS_P1;SDS_P2;PMS_P1;PMS_P2;Temp;Humidity;BMP_temperature;BMP_pressure;BME280_temperature;BME280_humidity;BME280_pressure;Samples;Min_cycle;Max_cycle;Signal;HPM_P1;HPM_P2
2022/11/16 00:00:28;;;;;;;25.63;13.35;;;;;;;10.88;100.00;99810.72;5062112;28;20033;-74
2022/11/16 00:02:53;;;;;;;25.73;14.48;;;;;;;10.89;100.00;99805.28;5073101;28;20480;-74
2022/11/16 00:05:19;;;;;;;30.60;15.23;;;;;;;10.88;100.00;99806.22;5070850;28;20051;-75
2022/11/16 00:07:44;;;;;;;33.00;14.07;;;;;;;10.92;100.00;99800.66;5067830;28;20037;-74
2022/11/16 00:10:11;;;;;;;33.65;15.75;;;;;;;10.94;100.00;99806.69;5063746;28;20599;-74
2022/11/16 00:12:37;;;;;;;33.47;15.27;;;;;;;10.92;100.00;99800.66;5064280;28;20092;-74
2022/11/16 00:15:03;;;;;;;29.30;15.85;;;;;;;10.89;100.00;99801.72;5068421;28;20040;-74
2022/11/16 00:17:29;;;;;;;33.33;16.30;;;;;;;10.91;100.00;99805.13;5067585;28;20469;-74
2022/11/16 00:19:54;;;;;;;36.38;16.27;;;;;;;10.93;100.00;99802.34;5069771;28;20070;-74
2022/11/16 00:22:19;;;;;;;29.95;16.00;;;;;;;10.91;100.00;99802.47;5063013;28;20090;-74
2022/11/16 00:24:45;;;;;;;38.22;16.48;;;;;;;10.89;100.00;99813.28;5068714;28;20076;-74
2022/11/16 00:27:11;;;;;;;39.92;16.80;;;;;;;10.91;100.00;99799.81;5062171;28;20083;-74
2022/11/16 00:29:36;;;;;;;26.38;12.32;;;;;;;10.95;100.00;99795.91;5066248;28;20028;-74
2022/11/16 00:32:01;;;;;;;32.33;15.50;;;;;;;10.91;100.00;99796.28;5049867;28;20616;-75
2022/11/16 00:34:27;;;;;;;35.58;18.23;;;;;;;10.89;100.00;99797.28;5069477;28;20036;-73
2022/11/16 00:36:53;;;;;;;35.08;17.70;;;;;;;10.91;100.00;99793.63;5061430;28;20044;-75
2022/11/16 00:39:19;;;;;;;36.05;18.45;;;;;;;10.91;100.00;99789.13;5080971;28;20209;-74
2022/11/16 00:41:46;;;;;;;32.58;16.27;;;;;;;10.93;100.00;99781.00;5047375;28;20028;-74
2022/11/16 00:44:11;;;;;;;39.67;18.83;;;;;;;10.89;100.00;99783.06;5064577;28;20041;-74
2022/11/16 00:46:37;;;;;;;37.53;18.83;;;;;;;10.88;100.00;99784.03;5065333;28;20620;-74
2022/11/16 00:49:04;;;;;;;36.63;18.52;;;;;;;10.88;100.00;99784.03;5053044;28;20047;-74
2022/11/16 00:51:30;;;;;;;30.88;17.15;;;;;;;10.89;100.00;99786.59;5044617;28;20063;-74
2022/11/16 00:53:56;;;;;;;30.48;17.75;;;;;;;10.89;100.00;99783.94;5070134;28;20071;-75
2022/11/16 00:56:22;;;;;;;43.33;20.60;;;;;;;10.88;100.00;99787.53;5044893;28;20028;-74
2022/11/16 00:58:47;;;;;;;32.67;18.38;;;;;;;10.89;100.00;99785.72;5078833;28;20483;-74
2022/11/16 01:01:13;;;;;;;34.28;18.08;;;;;;;10.89;100.00;99775.94;5053652;28;20871;-74
2022/11/16 01:03:39;;;;;;;39.95;19.48;;;;;;;10.90;100.00;99774.13;5054872;28;20082;-74
2022/11/16 01:06:07;;;;;;;36.70;19.60;;;;;;;10.85;100.00;99766.47;5079522;28;20044;-75
2022/11/16 01:08:34;;;;;;;35.47;19.85;;;;;;;10.89;100.00;99769.72;5061662;28;20044;-75
2022/11/16 01:12:07;;;;;;;37.72;19.30;;;;;;;10.87;100.00;99774.34;5066393;28;20044;-75
2022/11/16 01:13:46;;;;;;;35.50;17.58;;;;;;;10.89;100.00;99770.59;5065061;28;20032;-75
2022/11/16 01:16:15;;;;;;;36.05;19.73;;;;;;;10.88;100.00;99768.88;5068525;28;20122;-75
2022/11/16 01:18:40;;;;;;;42.20;20.95;;;;;;;10.85;100.00;99766.47;5055603;28;20029;-74
2022/11/16 01:21:06;;;;;;;35.42;19.55;;;;;;;10.87;100.00;99764.53;5052099;28;20530;-74
2022/11/16 01:23:31;;;;;;;40.17;19.67;;;;;;;10.85;100.00;99760.31;5049578;28;20042;-75
2022/11/16 01:26:00;;;;;;;40.33;21.02;;;;;;;10.86;100.00;99760.16;5055671;28;20037;-75
2022/11/16 01:28:29;;;;;;;43.28;21.63;;;;;;;10.87;100.00;99761.84;5068562;28;20047;-74
2022/11/16 01:30:55;;;;;;;42.58;19.92;;;;;;;10.86;100.00;99764.66;5069242;28;20040;-74
2022/11/16 01:33:20;;;;;;;40.35;22.75;;;;;;;10.88;100.00;99765.38;5049421;28;20032;-74
2022/11/16 01:35:47;;;;;;;49.67;24.02;;;;;;;10.86;100.00;99759.31;5045110;28;20063;-75
2022/11/16 01:38:13;;;;;;;40.22;20.80;;;;;;;10.85;100.00;99750.47;5068519;28;20532;-74
2022/11/16 01:40:39;;;;;;;40.63;22.13;;;;;;;10.85;100.00;99753.16;5069365;28;20078;-74
2022/11/16 01:43:25;;;;;;;38.85;20.35;;;;;;;10.87;100.00;99758.34;5065817;28;20388;-74
2022/11/16 01:45:56;;;;;;;43.70;21.95;;;;;;;10.89;100.00;99769.72;5078000;28;20064;-75
2022/11/16 01:48:26;;;;;;;49.53;22.40;;;;;;;10.87;100.00;99769.00;5050465;28;20052;-74
2022/11/16 01:50:53;;;;;;;46.70;21.95;;;;;;;10.85;100.00;99771.81;5062970;28;20804;-75
2022/11/16 01:53:19;;;;;;;40.67;22.33;;;;;;;10.91;100.00;99765.13;5069832;28;20037;-75
2022/11/16 01:55:49;;;;;;;49.47;24.17;;;;;;;10.88;100.00;99768.03;5054408;28;20060;-74
2022/11/16 01:58:24;;;;;;;49.58;23.92;;;;;;;10.90;100.00;99768.78;5044798;28;20028;-75
2022/11/16 02:00:58;;;;;;;48.25;23.52;;;;;;;10.89;100.00;99761.72;5052706;28;20035;-74
2022/11/16 02:03:40;;;;;;;48.80;23.17;;;;;;;10.88;100.00;99757.38;5055387;28;20049;-74
2022/11/16 02:06:25;;;;;;;56.53;24.20;;;;;;;10.86;100.00;99751.31;5065776;28;20465;-74
2022/11/16 02:12:27;;;;;;;44.05;21.05;;;;;;;10.83;100.00;99727.56;5037333;28;20040;-74
2022/11/16 02:14:56;;;;;;;39.75;20.23;;;;;;;10.83;100.00;99728.41;5078422;28;20028;-77
2022/11/16 02:17:41;;;;;;;43.85;19.40;;;;;;;10.84;100.00;99729.25;5049747;28;20131;-74
2022/11/16 02:20:20;;;;;;;51.78;22.98;;;;;;;10.83;100.00;99739.06;5082447;28;20041;-75
2022/11/16 02:23:04;;;;;;;46.33;21.77;;;;;;;10.81;100.00;99733.03;5073229;28;20563;-74
2022/11/16 02:25:49;;;;;;;41.88;21.17;;;;;;;10.79;100.00;99726.13;5087421;28;20588;-74
2022/11/16 02:28:45;;;;;;;39.97;20.42;;;;;;;10.78;100.00;99727.09;5059727;28;20041;-75
2022/11/16 02:31:16;;;;;;;40.10;19.80;;;;;;;10.77;100.00;99717.41;5068261;28;20043;-75
2022/11/16 02:33:45;;;;;;;41.00;18.30;;;;;;;10.76;100.00;99719.22;5055758;28;20078;-74
2022/11/16 02:36:15;;;;;;;39.78;20.63;;;;;;;10.74;100.00;99704.31;5072206;28;20123;-75
2022/11/16 02:38:48;;;;;;;40.28;19.90;;;;;;;10.74;100.00;99709.66;5063159;28;20500;-74
2022/11/16 02:41:19;;;;;;;46.45;20.40;;;;;;;10.73;100.00;99706.13;5064845;28;20495;-74
2022/11/16 02:43:49;;;;;;;43.28;21.83;;;;;;;10.72;100.00;99704.44;5076075;28;20050;-74
2022/11/16 02:46:21;;;;;;;37.53;20.52;;;;;;;10.73;100.00;99706.13;5082187;28;20040;-74
2022/11/16 02:48:51;;;;;;;41.25;21.65;;;;;;;10.71;100.00;99701.91;5068865;28;20039;-75
2022/11/16 02:51:19;;;;;;;44.67;20.17;;;;;;;10.73;100.00;99694.63;5058650;28;20044;-74
2022/11/16 02:53:58;;;;;;;41.85;21.40;;;;;;;10.72;100.00;99685.78;5064482;28;20035;-76
2022/11/16 02:56:24;;;;;;;47.17;22.35;;;;;;;10.71;100.00;99700.09;5054121;28;20039;-74
2022/11/16 02:58:50;;;;;;;49.78;21.80;;;;;;;10.70;100.00;99695.75;5055402;28;20032;-74
2022/11/16 03:01:46;;;;;;;55.95;22.92;;;;;;;10.71;100.00;99708.09;5080165;28;20144;-75
2022/11/16 03:04:19;;;;;;;51.38;23.02;;;;;;;10.68;100.00;99700.34;5045632;28;20485;-75
2022/11/16 03:06:47;;;;;;;46.70;22.95;;;;;;;10.72;100.00;99695.59;5059247;28;20036;-74
2022/11/16 03:09:29;;;;;;;48.55;25.02;;;;;;;10.68;100.00;99705.66;5079217;28;20045;-75
2022/11/16 03:11:58;;;;;;;58.05;26.13;;;;;;;10.67;100.00;99695.16;5060423;28;20055;-74
2022/11/16 03:14:56;;;;;;;48.17;22.67;;;;;;;10.69;100.00;99695.84;5051233;28;20539;-75
2022/11/16 03:17:43;;;;;;;48.58;23.83;;;;;;;10.69;100.00;99688.69;5067784;28;20057;-74
2022/11/16 03:20:13;;;;;;;50.83;23.05;;;;;;;10.70;100.00;99687.75;5053426;28;20039;-74
2022/11/16 03:22:43;;;;;;;50.08;23.33;;;;;;;10.71;100.00;99692.09;5066926;28;20040;-75
2022/11/16 03:25:11;;;;;;;44.30;20.90;;;;;;;10.76;100.00;99683.72;5071681;28;20040;-75
2022/11/16 03:27:37;;;;;;;47.47;22.50;;;;;;;10.77;100.00;99680.06;5071058;28;20039;-75
2022/11/16 03:30:16;;;;;;;60.38;23.80;;;;;;;10.78;100.00;99682.59;5051763;28;20037;-74
2022/11/16 03:33:00;;;;;;;50.70;23.05;;;;;;;10.77;100.00;99680.06;5078101;28;20987;-74
2022/11/16 03:35:34;;;;;;;59.28;25.38;;;;;;;10.80;100.00;99675.34;5063444;28;20044;-75
2022/11/16 03:38:01;;;;;;;53.72;24.70;;;;;;;10.81;100.00;99678.84;5083633;28;20034;-75
2022/11/16 03:40:30;;;;;;;57.88;25.70;;;;;;;10.81;100.00;99676.19;5061405;28;20043;-75
2022/11/16 03:42:58;;;;;;;48.45;24.25;;;;;;;10.81;100.00;99677.03;5050082;28;20031;-74
2022/11/16 03:45:23;;;;;;;51.20;25.25;;;;;;;10.84;100.00;99675.91;5043992;28;20584;-75
2022/11/16 03:47:51;;;;;;;59.15;26.13;;;;;;;10.81;100.00;99673.53;5057252;28;20067;-74
2022/11/16 03:50:17;;;;;;;53.33;25.10;;;;;;;10.82;100.00;99675.22;5054439;28;20040;-74
2022/11/16 03:52:42;;;;;;;59.78;25.92;;;;;;;10.83;100.00;99668.91;5054194;28;20028;-74
2022/11/16 03:55:08;;;;;;;51.53;24.98;;;;;;;10.85;100.00;99670.47;5061894;28;20430;-74
2022/11/16 03:57:34;;;;;;;62.88;26.05;;;;;;;10.86;100.00;99671.31;5056150;28;20039;-74
2022/11/16 03:59:59;;;;;;;60.90;25.23;;;;;;;10.88;100.00;99672.88;5045110;28;20048;-75
2022/11/16 04:02:25;;;;;;;62.05;25.75;;;;;;;10.89;100.00;99668.38;5049713;28;20036;-74
2022/11/16 04:24:24;;;;;;;50.60;23.05;;;;;;;10.94;100.00;99700.84;5051968;28;20036;-74
2022/11/16 04:29:40;;;;;;;47.97;21.52;;;;;;;10.93;100.00;99700.97;5057478;28;20067;-75
2022/11/16 04:37:53;;;;;;;49.95;20.80;;;;;;;10.89;100.00;99722.59;5058002;28;20040;-75
2022/11/16 04:40:28;;;;;;;42.13;18.67;;;;;;;10.85;100.00;99715.81;5045452;28;20079;-74
2022/11/16 04:43:02;;;;;;;40.50;19.40;;;;;;;10.85;100.00;99714.97;5042237;28;20558;-74
2022/11/16 04:48:19;;;;;;;39.70;17.98;;;;;;;10.87;100.00;99708.53;5083691;28;20044;-74
2022/11/16 04:50:45;;;;;;;40.25;18.75;;;;;;;10.87;100.00;99721.84;5037729;28;20508;-75
2022/11/16 04:53:11;;;;;;;35.30;17.77;;;;;;;10.82;100.00;99718.72;5081265;28;20561;-74
2022/11/16 04:55:43;;;;;;;36.83;19.00;;;;;;;10.83;100.00;99712.41;5050677;28;20041;-74
2022/11/16 04:58:09;;;;;;;38.08;18.48;;;;;;;10.82;100.00;99718.72;5080360;28;20028;-74
2022/11/16 05:00:35;;;;;;;41.45;19.30;;;;;;;10.82;100.00;99713.38;5086490;28;20543;-74
2022/11/16 05:03:03;;;;;;;40.25;18.17;;;;;;;10.73;100.00;99721.28;5050020;28;20965;-75
2022/11/16 05:05:28;;;;;;;40.75;18.60;;;;;;;10.67;100.00;99727.97;5077159;28;20107;-75
2022/11/16 05:07:54;;;;;;;33.65;17.30;;;;;;;10.73;100.00;99735.47;5043093;28;20028;-74
2022/11/16 05:10:25;;;;;;;34.08;17.73;;;;;;;10.73;100.00;99735.47;5078749;28;20044;-74
2022/11/16 05:12:51;;;;;;;35.15;16.98;;;;;;;10.73;100.00;99739.97;5047645;28;20143;-74
2022/11/16 05:15:18;;;;;;;32.33;17.13;;;;;;;10.71;100.00;99740.09;5070349;28;20055;-74
2022/11/16 05:17:45;;;;;;;34.97;17.83;;;;;;;10.71;100.00;99741.91;5058676;28;20542;-74
2022/11/16 05:23:02;;;;;;;38.65;17.95;;;;;;;10.66;100.00;99739.63;5048359;28;20489;-74
2022/11/16 05:25:31;;;;;;;45.13;20.80;;;;;;;10.66;100.00;99734.28;5070934;28;20592;-76
2022/11/16 05:27:57;;;;;;;47.13;21.40;;;;;;;10.67;100.00;99732.47;5041376;28;20037;-75
2022/11/16 05:30:23;;;;;;;43.08;20.00;;;;;;;10.64;100.00;99741.53;5048549;28;20032;-74
2022/11/16 05:32:49;;;;;;;38.15;18.52;;;;;;;10.65;100.00;99735.28;5063756;28;20039;-74
2022/11/16 05:35:17;;;;;;;41.65;19.55;;;;;;;10.58;100.00;99742.06;5080936;28;20032;-75
2022/11/16 05:37:42;;;;;;;37.90;19.13;;;;;;;10.59;100.00;99747.28;5051760;28;20036;-74
2022/11/16 05:40:08;;;;;;;36.95;18.98;;;;;;;10.55;100.00;99751.16;5054320;28;20102;-75
2022/11/16 05:42:43;;;;;;;36.25;18.10;;;;;;;10.57;100.00;99754.53;5071831;28;20048;-75
2022/11/16 05:45:09;;;;;;;41.47;18.52;;;;;;;10.55;100.00;99769.81;5082938;28;20028;-74
2022/11/16 05:47:34;;;;;;;39.03;18.90;;;;;;;10.55;100.00;99767.16;5044706;28;20043;-74
2022/11/16 05:50:00;;;;;;;38.67;17.65;;;;;;;10.57;100.00;99777.69;5062665;28;20055;-75
2022/11/16 05:52:31;;;;;;;37.28;18.55;;;;;;;10.54;100.00;99777.91;5055460;28;20044;-74
2022/11/16 05:55:01;;;;;;;36.90;18.43;;;;;;;10.49;100.00;99782.78;5047056;28;20048;-74
2022/11/16 05:57:29;;;;;;;39.00;17.65;;;;;;;10.53;100.00;99781.56;5050098;28;20035;-74
2022/11/16 05:59:55;;;;;;;38.88;18.05;;;;;;;10.46;100.00;99786.53;5040780;28;20032;-74
2022/11/16 06:02:20;;;;;;;42.45;18.25;;;;;;;10.47;100.00;99788.22;5087792;28;20090;-75
2022/11/16 06:04:46;;;;;;;33.40;16.92;;;;;;;10.46;100.00;99791.88;5042788;28;20043;-73
2022/11/16 06:07:12;;;;;;;35.42;17.25;;;;;;;10.46;100.00;99801.69;5048868;28;20040;-74
2022/11/16 06:09:37;;;;;;;33.38;16.02;;;;;;;10.45;100.00;99797.34;5048698;28;20743;-74
2022/11/16 06:12:12;;;;;;;28.92;15.70;;;;;;;10.44;100.00;99793.81;5043665;28;20100;-73
2022/11/16 06:14:37;;;;;;;39.50;15.38;;;;;;;10.40;100.00;99791.53;5041811;28;20036;-73
2022/11/16 06:17:03;;;;;;;30.58;14.55;;;;;;;10.39;100.00;99787.97;5041876;28;20036;-73
2022/11/16 06:19:29;;;;;;;31.42;14.23;;;;;;;10.35;100.00;99786.56;5061183;28;20082;-74
2022/11/16 06:21:56;;;;;;;26.77;13.70;;;;;;;10.31;100.00;99799.28;5074473;28;20057;-75
2022/11/16 06:24:22;;;;;;;28.15;13.13;;;;;;;10.27;100.00;99791.63;5044390;28;20045;-73
2022/11/16 06:26:48;;;;;;;28.85;12.70;;;;;;;10.12;100.00;99791.84;5064871;28;20097;-73
2022/11/16 06:29:13;;;;;;;29.95;14.88;;;;;;;10.14;100.00;99799.72;5048105;28;20059;-73
2022/11/16 06:31:39;;;;;;;25.35;12.30;;;;;;;10.09;100.00;99802.75;5050454;28;20032;-73
2022/11/16 06:34:05;;;;;;;25.50;10.88;;;;;;;10.07;100.00;99796.69;5045503;28;20490;-73
2022/11/16 06:36:30;;;;;;;24.90;11.02;;;;;;;10.01;100.00;99785.66;5084410;28;20040;-74
2022/11/16 06:38:59;;;;;;;23.42;10.85;;;;;;;10.00;100.00;99794.63;5047831;28;20040;-73
2022/11/16 06:41:26;;;;;;;23.90;9.60;;;;;;;9.92;100.00;99797.03;5052016;28;20037;-74
2022/11/16 06:43:52;;;;;;;25.15;10.75;;;;;;;9.79;100.00;99800.66;5047993;28;20039;-75
2022/11/16 06:46:20;;;;;;;28.27;10.63;;;;;;;9.76;100.00;99800.03;5045533;28;20043;-73
2022/11/16 06:48:46;;;;;;;26.38;10.73;;;;;;;9.72;100.00;99809.22;5078675;28;20029;-73
2022/11/16 06:51:13;;;;;;;22.33;9.65;;;;;;;9.50;100.00;99805.53;5073580;28;20113;-73
2022/11/16 06:53:39;;;;;;;24.83;10.80;;;;;;;9.39;100.00;99817.91;5087802;28;20032;-73
2022/11/16 06:56:06;;;;;;;24.98;10.35;;;;;;;9.27;100.00;99819.69;5057310;28;20032;-73
2022/11/16 06:58:37;;;;;;;24.75;10.65;;;;;;;9.19;100.00;99828.25;5048021;28;20139;-73
2022/11/16 07:01:08;;;;;;;32.00;11.73;;;;;;;9.25;100.00;99829.59;5083663;28;20461;-73
2022/11/16 07:03:35;;;;;;;21.25;11.02;;;;;;;9.14;100.00;99830.41;5068647;28;20063;-73
2022/11/16 07:06:07;;;;;;;35.28;11.60;;;;;;;9.05;100.00;99836.41;5084734;28;20028;-73
2022/11/16 07:08:33;;;;;;;21.27;9.43;;;;;;;8.97;100.00;99849.38;5084882;28;20040;-73
2022/11/16 07:11:07;;;;;;;24.33;9.05;;;;;;;9.00;100.00;99841.19;5053936;28;20036;-73
2022/11/16 07:13:34;;;;;;;21.58;9.05;;;;;;;8.97;100.00;99844.91;5049475;28;20037;-73
2022/11/16 07:16:04;;;;;;;21.00;8.88;;;;;;;8.98;100.00;99861.72;5065700;28;20044;-73
2022/11/16 07:18:38;;;;;;;21.15;8.90;;;;;;;8.90;100.00;99854.31;5046595;28;20036;-73
2022/11/16 07:21:08;;;;;;;31.95;12.68;;;;;;;8.89;100.00;99859.75;5067041;28;20068;-73
2022/11/16 07:23:35;;;;;;;29.02;14.05;;;;;;;8.90;100.00;99870.25;5066956;28;20044;-73
2022/11/16 07:26:05;;;;;;;29.92;13.40;;;;;;;8.80;100.00;99878.06;5087473;28;20032;-74
2022/11/16 07:28:46;;;;;;;27.00;12.73;;;;;;;8.86;100.00;99883.88;5081986;28;20040;-74
2022/11/16 07:31:13;;;;;;;19.30;9.95;;;;;;;8.83;100.00;99876.97;5062621;28;20121;-74
2022/11/16 07:33:39;;;;;;;20.02;9.48;;;;;;;8.97;100.00;99887.47;5055003;28;20131;-73
2022/11/16 07:36:25;;;;;;;20.00;10.05;;;;;;;8.94;100.00;99892.16;5066854;28;20044;-74
2022/11/16 07:38:53;;;;;;;25.13;9.35;;;;;;;8.90;100.00;99883.56;5078122;28;20029;-74
2022/11/16 07:41:18;;;;;;;22.33;9.48;;;;;;;8.85;100.00;99899.00;5064358;28;20496;-74
2022/11/16 07:43:57;;;;;;;20.75;9.65;;;;;;;8.85;100.00;99900.81;5046129;28;20127;-74
2022/11/16 07:46:29;;;;;;;;;;;;;;;8.84;100.00;99901.75;5063318;28;20126;-74
2022/11/16 07:48:56;;;;;;;22.55;8.15;;;;;;;8.86;100.00;99908.66;5056360;28;19975;-74
2022/11/16 07:51:48;;;;;;;17.00;7.50;;;;;;;8.97;100.00;99907.88;5061158;28;20059;-74
2022/11/16 07:54:39;;;;;;;20.33;6.72;;;;;;;9.07;100.00;99914.25;5065317;28;20142;-74
2022/11/16 07:57:05;;;;;;;16.95;6.65;;;;;;;9.04;100.00;99910.00;5050067;28;20040;-74
2022/11/16 07:59:31;;;;;;;18.77;7.22;;;;;;;9.15;100.00;99911.03;5042098;28;20135;-73
2022/11/16 08:01:58;;;;;;;18.27;7.40;;;;;;;9.19;100.00;99925.81;5058476;28;20036;-73
2022/11/16 08:04:23;;;;;;;21.42;7.30;;;;;;;9.20;100.00;99920.38;5051919;28;20040;-73
2022/11/16 08:06:50;;;;;;;21.67;7.00;;;;;;;9.23;100.00;99929.94;5065562;28;20032;-74
2022/11/16 08:09:17;;;;;;;16.85;6.28;;;;;;;9.16;100.00;99923.38;5049378;28;20047;-74
2022/11/16 08:11:42;;;;;;;19.38;7.03;;;;;;;9.28;100.00;99930.44;5084690;28;20595;-73
2022/11/16 08:14:09;;;;;;;11.38;6.55;;;;;;;9.29;100.00;99930.38;5047336;28;20067;-75
2022/11/16 08:16:35;;;;;;;18.90;7.28;;;;;;;9.40;100.00;99928.72;5054275;28;20029;-73
2022/11/16 08:19:09;;;;;;;16.63;6.00;;;;;;;9.42;100.00;99937.44;5056390;28;20077;-74
2022/11/16 08:21:35;;;;;;;12.82;6.40;;;;;;;9.40;100.00;99931.38;5057255;28;20056;-73
2022/11/16 08:24:00;;;;;;;16.80;6.80;;;;;;;9.46;100.00;99937.09;5067182;28;20159;-73
2022/11/16 08:26:27;;;;;;;15.13;7.55;;;;;;;9.50;100.00;99937.72;5053269;28;20040;-74
2022/11/16 08:28:58;;;;;;;20.77;7.65;;;;;;;9.74;100.00;99935.03;5038503;28;20068;-74
2022/11/16 08:31:28;;;;;;;25.58;8.68;;;;;;;9.90;100.00;99942.75;5044038;28;20593;-74
2022/11/16 08:34:03;;;;;;;19.05;8.45;;;;;;;9.82;100.00;99932.66;5077369;28;20036;-74
2022/11/16 08:36:29;;;;;;;17.58;8.05;;;;;;;9.81;100.00;99936.31;5044909;28;20024;-73
2022/11/16 08:38:55;;;;;;;25.77;7.65;;;;;;;9.76;100.00;99939.31;5077745;28;20082;-74
2022/11/16 08:41:22;;;;;;;26.35;8.20;;;;;;;9.76;100.00;99941.13;5045932;28;20099;-73
2022/11/16 08:43:49;;;;;;;24.73;8.27;;;;;;;9.72;100.00;99943.16;5056281;28;20036;-74
2022/11/16 08:46:16;;;;;;;21.38;7.57;;;;;;;9.75;100.00;99948.25;5048335;28;20044;-73
2022/11/16 08:48:44;;;;;;;20.95;8.77;;;;;;;9.84;100.00;99946.75;5077604;28;20032;-74
2022/11/16 08:51:13;;;;;;;18.48;8.00;;;;;;;9.76;100.00;99949.13;5061610;28;20458;-73
2022/11/16 08:53:42;;;;;;;25.23;8.18;;;;;;;9.83;100.00;99955.66;5055824;28;20226;-73
2022/11/16 08:56:10;;;;;;;15.45;8.32;;;;;;;9.75;100.00;99955.41;5052554;28;20564;-74
2022/11/16 08:58:36;;;;;;;23.88;7.85;;;;;;;9.85;100.00;99967.06;5043071;28;20060;-76
2022/11/16 09:01:14;;;;;;;19.10;7.57;;;;;;;9.91;100.00;99965.75;5042449;28;20079;-73
2022/11/16 09:03:41;;;;;;;25.38;8.38;;;;;;;10.07;100.00;99972.47;5068923;28;20044;-74
2022/11/16 09:06:07;;;;;;;17.88;7.63;;;;;;;10.02;100.00;99968.47;5075916;28;20036;-73
2022/11/16 09:08:35;;;;;;;21.25;7.85;;;;;;;10.21;100.00;99962.59;5075143;28;20315;-74
2022/11/16 09:11:05;;;;;;;19.33;7.53;;;;;;;10.16;100.00;99968.28;5067480;28;20084;-73
2022/11/16 09:13:31;;;;;;;19.73;8.60;;;;;;;10.29;100.00;99962.88;5065809;28;20040;-74
2022/11/16 09:15:58;;;;;;;12.18;7.20;;;;;;;10.34;100.00;99966.91;5066927;28;20055;-73
2022/11/16 09:18:24;;;;;;;20.73;7.63;;;;;;;10.32;100.00;99970.66;5068474;28;20043;-73
2022/11/16 09:20:49;;;;;;;18.05;7.60;;;;;;;10.43;100.00;99964.50;5067426;28;20033;-74
2022/11/16 09:23:15;;;;;;;19.88;8.48;;;;;;;10.48;100.00;99968.50;5070893;28;20040;-72
2022/11/16 09:25:41;;;;;;;13.35;7.20;;;;;;;10.30;100.00;99967.28;5052668;28;20374;-73
2022/11/16 09:28:07;;;;;;;21.92;8.27;;;;;;;10.46;100.00;99969.59;5073378;28;20044;-72
2022/11/16 09:30:33;;;;;;;17.98;6.63;;;;;;;10.34;100.00;99985.56;5056149;28;20050;-73
2022/11/16 09:32:59;;;;;;;17.95;7.32;;;;;;;10.45;100.00;99984.75;5061414;28;20399;-72
2022/11/16 09:35:24;;;;;;;18.45;7.25;;;;;;;10.45;100.00;99990.09;5075005;28;20040;-72
2022/11/16 09:37:50;;;;;;;12.48;5.97;;;;;;;10.49;100.00;99985.34;5053641;28;20040;-73
2022/11/16 09:40:15;;;;;;;20.08;6.68;;;;;;;10.73;100.00;99983.44;5073084;28;20051;-72
2022/11/16 09:43:00;;;;;;;16.95;7.15;;;;;;;10.79;100.00;99980.31;5064910;28;20051;-72
2022/11/16 09:45:34;;;;;;;20.30;6.60;;;;;;;10.96;100.00;99984.31;5069864;28;20052;-73
2022/11/16 09:48:04;;;;;;;30.88;5.93;;;;;;;10.80;100.00;99984.69;5038145;28;20059;-72
2022/11/16 09:50:48;;;;;;;27.35;7.22;;;;;;;11.16;100.00;99993.44;5078237;28;20047;-73
2022/11/16 09:53:32;;;;;;;14.43;5.63;;;;;;;11.20;100.00;99992.22;5066025;28;20040;-72
2022/11/16 09:56:11;;;;;;;17.90;5.50;;;;;;;11.21;100.00;99999.25;5068445;28;20039;-72
2022/11/16 09:58:48;;;;;;;13.05;4.53;;;;;;;11.00;100.00;99991.13;5065550;28;20037;-72
2022/11/16 10:01:22;;;;;;;10.90;4.07;;;;;;;11.06;100.00;99993.31;5060488;28;20051;-73
2022/11/16 10:03:52;;;;;;;21.67;5.28;;;;;;;11.07;100.00;99996.81;5063610;28;20854;-73
2022/11/16 10:06:38;;;;;;;16.38;3.85;;;;;;;11.14;100.00;99998.00;5060837;28;20086;-73
2022/11/16 10:09:04;;;;;;;18.33;5.25;;;;;;;11.00;100.00;100000.94;5059897;28;20855;-73
2022/11/16 10:11:51;;;;;;;23.60;4.78;;;;;;;10.95;100.00;99997.78;5069797;28;20054;-73
2022/11/16 10:14:19;;;;;;;13.82;5.35;;;;;;;10.89;100.00;100007.09;5071933;28;20138;-73
2022/11/16 10:17:10;;;;;;;11.85;3.97;;;;;;;10.81;100.00;100001.53;5066142;28;20769;-73
2022/11/16 10:19:57;;;;;;;13.38;4.25;;;;;;;10.78;100.00;100013.28;5042928;28;20058;-75
2022/11/16 10:22:37;;;;;;;21.67;4.20;;;;;;;10.76;100.00;99998.38;5064287;28;20037;-72
2022/11/16 10:25:13;;;;;;;21.75;5.05;;;;;;;10.84;100.00;100006.59;5068464;28;20081;-73
2022/11/16 10:27:56;;;;;;;15.95;4.35;;;;;;;10.85;100.00;100003.00;5080095;28;20044;-73
2022/11/16 10:30:22;;;;;;;16.15;4.60;;;;;;;10.83;100.00;100003.09;5062834;28;20451;-72
2022/11/16 10:32:52;;;;;;;8.48;3.60;;;;;;;10.84;100.00;100004.81;5065593;28;20641;-72
2022/11/16 10:35:28;;;;;;;10.73;3.50;;;;;;;10.87;100.00;99996.56;5063138;28;20086;-72
2022/11/16 10:37:54;;;;;;;16.17;3.33;;;;;;;10.96;100.00;99996.81;5060210;28;20036;-72
2022/11/16 10:40:29;;;;;;;11.23;3.15;;;;;;;10.92;100.00;99996.22;5063235;28;20055;-72
2022/11/16 10:43:03;;;;;;;9.32;3.22;;;;;;;10.82;100.00;99996.06;5082357;28;20032;-72
2022/11/16 10:45:38;;;;;;;7.25;3.17;;;;;;;10.95;100.00;99995.97;5067832;28;20043;-72
2022/11/16 10:48:46;;;;;;;22.02;5.05;;;;;;;11.08;100.00;99991.34;5048148;28;20045;-72
2022/11/16 10:51:11;;;;;;;11.40;4.18;;;;;;;11.51;100.00;99985.25;5057004;28;20629;-72
2022/11/16 10:53:39;;;;;;;9.20;2.85;;;;;;;11.81;100.00;99984.56;5070028;28;20032;-73
2022/11/16 10:56:16;;;;;;;20.58;3.83;;;;;;;12.02;100.00;99978.47;5066140;28;20050;-72
2022/11/16 10:58:57;;;;;;;10.80;3.58;;;;;;;11.71;100.00;99986.31;5064519;28;20040;-72
2022/11/16 11:01:51;;;;;;;13.65;3.72;;;;;;;11.55;100.00;99980.53;5065097;28;20501;-72
2022/11/16 11:04:24;;;;;;;10.52;3.53;;;;;;;11.19;100.00;99981.66;5062007;28;20056;-72
2022/11/16 11:06:59;;;;;;;19.92;4.30;;;;;;;11.29;100.00;99971.94;5061223;28;20037;-71
2022/11/16 11:09:34;;;;;;;15.30;3.45;;;;;;;11.21;100.00;99974.38;5065014;28;20133;-71
2022/11/16 11:15:10;;;;;;;14.70;3.97;;;;;;;11.07;100.00;99970.13;5058113;28;20052;-73
2022/11/16 11:17:42;;;;;;;14.18;3.90;;;;;;;11.08;100.00;99970.00;5058536;28;20155;-72
2022/11/16 11:20:13;;;;;;;9.48;3.97;;;;;;;11.25;100.00;99975.84;5050145;28;20055;-72
2022/11/16 11:22:56;;;;;;;12.55;4.28;;;;;;;11.31;100.00;99967.34;5063364;28;20110;-73
2022/11/16 11:25:24;;;;;;;;;;;;;;;11.45;100.00;99968.91;5062194;28;20051;-72
2022/11/16 11:28:02;;;;;;;16.50;4.38;;;;;;;11.35;100.00;99963.44;5068572;28;20345;-72
2022/11/16 11:30:28;;;;;;;11.45;3.22;;;;;;;11.53;100.00;99955.75;5065202;28;20174;-72
2022/11/16 11:32:54;;;;;;;15.07;3.33;;;;;;;11.47;100.00;99951.75;5066483;28;20479;-73
2022/11/16 11:35:29;;;;;;;14.20;2.75;;;;;;;11.33;100.00;99952.88;5067719;28;20036;-72
2022/11/16 11:37:57;;;;;;;11.07;2.72;;;;;;;11.39;100.00;99944.38;5069493;28;20055;-73
2022/11/16 11:40:27;;;;;;;11.68;2.75;;;;;;;11.51;100.00;99949.72;5068141;28;20094;-72
2022/11/16 11:43:01;;;;;;;13.23;2.95;;;;;;;11.48;100.00;99948.13;5067780;28;20059;-72
2022/11/16 11:45:46;;;;;;;7.05;2.53;;;;;;;11.45;100.00;99945.72;5062930;28;20410;-73
2022/11/16 11:48:26;;;;;;;9.32;3.05;;;;;;;11.56;100.00;99943.00;5069721;28;20039;-72
2022/11/16 11:50:54;;;;;;;14.40;2.78;;;;;;;11.63;100.00;99941.53;5055872;28;20083;-72
2022/11/16 11:54:03;;;;;;;10.80;2.50;;;;;;;11.75;100.00;99938.84;5066308;28;20086;-72
2022/11/16 11:56:31;;;;;;;11.38;2.92;;;;;;;11.84;100.00;99938.94;5071828;28;20059;-73
2022/11/16 11:58:57;;;;;;;12.43;2.70;;;;;;;11.97;100.00;99937.91;5073263;28;20062;-72
2022/11/16 12:01:58;;;;;;;10.75;2.60;;;;;;;12.06;100.00;99929.97;5063940;28;20505;-72
2022/11/16 12:05:01;;;;;;;6.35;2.05;;;;;;;11.95;100.00;99926.50;5068000;28;20637;-72
2022/11/16 12:07:41;;;;;;;;;;;;;;;11.84;100.00;99927.41;5060118;28;20043;-73
2022/11/16 12:10:20;;;;;;;6.45;2.20;;;;;;;11.79;100.00;99930.41;5070044;28;19927;-73